Time;durP1;ratioP1;P1;durP2;ratioP2;P2;SDS_P1;SDS_P2;PMS_P1;PMS_P2;Temp;Humidity;BMP_temperature;BMP_pressure;BME280_temperature;BME280_humidity;BME280_pressure;Samples;Min_cycle;Max_cycle;Signal;HPM_P1;HPM_P2
2022/03/21 00:01:07;;;;;;;2.28;1.13;;;10.10;60.80;;;;;;20975122;28;20120;-73
2022/03/21 00:11:08;;;;;;;1.95;1.10;;;10.10;60.70;;;;;;21019296;28;20768;-73
2022/03/21 00:21:09;;;;;;;2.83;1.17;;;10.20;60.80;;;;;;21018978;28;20115;-73
2022/03/21 00:31:09;;;;;;;3.30;1.33;;;10.10;60.80;;;;;;21036244;28;20036;-73
2022/03/21 00:41:10;;;;;;;2.33;1.10;;;10.20;60.90;;;;;;21034197;28;20035;-72
2022/03/21 00:51:11;;;;;;;2.05;1.20;;;10.10;60.80;;;;;;21067414;28;20285;-73
2022/03/21 01:01:12;;;;;;;1.58;1.20;;;10.10;60.90;;;;;;21049483;28;20085;-73
2022/03/21 01:11:13;;;;;;;2.85;1.50;;;10.10;60.90;;;;;;21049771;28;20040;-72
2022/03/21 01:21:13;;;;;;;3.40;1.35;;;10.10;60.90;;;;;;21047160;28;20147;-73
2022/03/21 01:31:14;;;;;;;3.35;1.80;;;10.10;60.90;;;;;;21047270;28;20502;-73
2022/03/21 01:41:15;;;;;;;3.42;1.80;;;10.10;60.90;;;;;;21062447;28;20123;-72
2022/03/21 01:51:15;;;;;;;1.88;1.00;;;10.10;60.90;;;;;;21029821;28;20043;-73
2022/03/21 02:01:16;;;;;;;2.58;1.30;;;10.00;60.90;;;;;;21060966;28;20089;-72
2022/03/21 02:11:19;;;;;;;3.25;1.65;;;10.00;60.90;;;;;;21381342;22;20074;-72
2022/03/21 02:21:24;;;;;;;2.70;1.55;;;10.10;61.00;;;;;;21031568;28;20040;-72
2022/03/21 02:31:25;;;;;;;3.30;1.60;;;10.10;61.00;;;;;;21009188;28;20050;-72
2022/03/21 02:41:25;;;;;;;3.83;1.67;;;10.00;60.90;;;;;;21041660;28;20390;-73
2022/03/21 02:51:26;;;;;;;4.93;1.65;;;10.00;60.90;;;;;;21075545;28;20528;-72
2022/03/21 03:01:27;;;;;;;3.00;1.60;;;10.00;60.90;;;;;;21039162;28;20119;-72
2022/03/21 03:11:27;;;;;;;3.60;1.60;;;10.00;60.90;;;;;;21022200;28;20093;-72
2022/03/21 03:21:30;;;;;;;3.90;1.90;;;10.00;60.90;;;;;;21038627;28;20371;-72
2022/03/21 03:31:33;;;;;;;3.45;1.70;;;10.00;60.90;;;;;;21038496;28;20055;-72
2022/03/21 03:41:33;;;;;;;3.63;1.80;;;10.00;60.90;;;;;;21037469;28;20505;-73
2022/03/21 03:51:34;;;;;;;2.88;1.75;;;10.00;60.90;;;;;;21053704;28;20036;-72
2022/03/21 04:01:34;;;;;;;3.85;1.80;;;9.90;60.80;;;;;;21072621;28;20116;-71
2022/03/21 04:11:35;;;;;;;3.47;2.00;;;9.90;60.80;;;;;;21048393;28;20481;-71
2022/03/21 04:21:36;;;;;;;2.25;1.35;;;9.90;60.80;;;;;;21087185;28;20452;-72
2022/03/21 04:31:36;;;;;;;3.20;1.83;;;9.90;60.80;;;;;;21048428;28;20135;-73
2022/03/21 04:41:37;;;;;;;2.78;1.63;;;9.90;60.80;;;;;;21084158;28;20286;-73
2022/03/21 04:51:38;;;;;;;3.38;1.83;;;9.90;60.80;;;;;;21084934;28;20054;-72
2022/03/21 05:01:38;;;;;;;5.43;2.28;;;9.90;60.70;;;;;;21082940;28;20024;-71
2022/03/21 05:11:40;;;;;;;4.47;2.13;;;9.90;60.80;;;;;;21083140;28;20177;-72
2022/03/21 05:21:40;;;;;;;3.53;2.17;;;9.90;60.70;;;;;;21081531;28;20032;-72
2022/03/21 05:31:41;;;;;;;4.50;1.80;;;9.80;60.70;;;;;;21063636;28;20123;-73
2022/03/21 05:41:42;;;;;;;3.50;2.00;;;9.90;60.80;;;;;;21080035;28;20493;-71
2022/03/21 05:51:43;;;;;;;3.20;1.77;;;9.80;60.80;;;;;;21062372;28;20059;-72
2022/03/21 06:01:43;;;;;;;3.35;2.08;;;9.80;60.70;;;;;;21075933;28;20458;-71
2022/03/21 06:11:48;;;;;;;4.75;2.55;;;9.80;60.70;;;;;;21049112;28;20039;-71
2022/03/21 06:21:49;;;;;;;2.90;1.88;;;9.80;60.80;;;;;;21041905;28;20094;-72
2022/03/21 06:31:49;;;;;;;2.85;1.88;;;9.80;60.80;;;;;;21076383;28;20180;-73
2022/03/21 06:41:51;;;;;;;3.95;2.22;;;9.80;60.80;;;;;;21037312;28;20549;-73
2022/03/21 06:51:51;;;;;;;3.55;1.92;;;9.80;60.80;;;;;;21057202;28;20051;-79
2022/03/21 07:01:52;;;;;;;4.80;1.98;;;9.80;60.80;;;;;;21023570;28;20389;-75
2022/03/21 07:11:52;;;;;;;3.22;1.85;;;9.80;60.90;;;;;;21038082;28;20565;-76
2022/03/21 07:21:53;;;;;;;5.10;2.07;;;9.80;60.90;;;;;;21030536;28;20036;-76
2022/03/21 07:31:54;;;;;;;3.25;2.08;;;9.90;61.00;;;;;;21022197;28;20659;-81
2022/03/21 07:42:00;;;;;;;3.27;2.00;;;9.80;61.00;;;;;;21038375;28;20473;-81
2022/03/21 07:52:00;;;;;;;2.88;1.90;;;9.80;60.90;;;;;;21056046;28;20282;-81
2022/03/21 08:02:03;;;;;;;3.72;1.92;;;9.80;60.90;;;;;;21035715;28;20058;-79
2022/03/21 08:12:04;;;;;;;2.58;1.63;;;9.80;61.00;;;;;;21058269;28;20363;-79
2022/03/21 08:22:05;;;;;;;3.22;1.77;;;9.80;60.90;;;;;;21003322;28;20402;-76
2022/03/21 08:32:06;;;;;;;3.63;2.17;;;9.80;60.90;;;;;;21037079;28;20032;-77
2022/03/21 08:42:07;;;;;;;3.53;2.00;;;9.90;61.00;;;;;;21035693;28;20042;-75
2022/03/21 08:52:08;;;;;;;3.00;1.92;;;9.80;60.90;;;;;;21046135;28;20036;-81
2022/03/21 09:02:12;;;;;;;5.32;2.13;;;9.90;61.00;;;;;;21082735;28;20050;-78
2022/03/21 09:12:16;;;;;;;4.35;1.92;;;9.90;61.00;;;;;;21051949;28;20486;-75
2022/03/21 09:22:16;;;;;;;3.10;1.80;;;9.90;60.90;;;;;;21051638;28;20056;-76
2022/03/21 09:32:17;;;;;;;3.78;2.38;;;9.90;60.90;;;;;;21067653;28;20040;-80
2022/03/21 09:42:18;;;;;;;3.58;1.85;;;9.90;60.90;;;;;;21032364;28;20028;-74
2022/03/21 09:52:20;;;;;;;3.00;1.90;;;10.00;60.90;;;;;;20964487;28;20470;-79
2022/03/21 10:02:21;;;;;;;4.15;2.10;;;9.90;60.80;;;;;;20945079;28;20483;-75
2022/03/21 10:12:22;;;;;;;3.55;1.70;;;10.00;60.90;;;;;;21030833;28;20493;-84
2022/03/21 10:22:43;;;;;;;3.70;1.90;;;10.00;60.80;;;;;;20980963;28;20088;-81
2022/03/21 10:32:46;;;;;;;2.85;1.88;;;10.00;60.80;;;;;;20941118;28;20452;-77
2022/03/21 10:43:09;;;;;;;2.95;1.77;;;9.90;60.80;;;;;;21025762;28;20043;-75
2022/03/21 10:53:13;;;;;;;3.10;1.80;;;9.90;60.80;;;;;;21045997;28;20036;-75
2022/03/21 11:03:16;;;;;;;2.53;1.67;;;9.90;60.80;;;;;;21030169;28;20127;-75
2022/03/21 11:13:16;;;;;;;3.67;1.65;;;10.00;60.80;;;;;;21051653;28;20032;-79
2022/03/21 11:23:18;;;;;;;1.67;1.33;;;10.00;60.80;;;;;;21035875;28;20081;-78
2022/03/21 11:33:41;;;;;;;2.35;1.30;;;10.00;60.80;;;;;;21050462;28;20039;-78
2022/03/21 11:43:43;;;;;;;3.53;1.92;;;9.90;60.70;;;;;;21025226;28;20599;-81
2022/03/21 11:53:46;;;;;;;3.97;1.58;;;10.00;60.80;;;;;;21023613;28;20048;-80
2022/03/21 12:03:48;;;;;;;4.05;2.20;;;9.90;60.80;;;;;;21021411;28;20478;-78
2022/03/21 12:13:48;;;;;;;4.53;2.00;;;10.00;60.80;;;;;;21038095;28;20132;-78
2022/03/21 12:24:11;;;;;;;2.88;1.80;;;10.00;60.80;;;;;;21036714;28;20497;-79
2022/03/21 12:34:39;;;;;;;3.58;1.85;;;10.00;60.80;;;;;;21050656;28;20473;-75
2022/03/21 12:44:40;;;;;;;3.37;1.60;;;10.00;60.80;;;;;;21072757;28;20044;-74
2022/03/21 12:54:47;;;;;;;2.72;1.60;;;10.00;60.70;;;;;;21052160;28;20466;-74
2022/03/21 13:15:16;;;;;;;2.90;1.80;;;10.00;60.70;;;;;;21068532;28;20536;-76
2022/03/21 13:25:28;;;;;;;3.55;2.10;;;10.00;60.60;;;;;;21012257;28;20030;-74
2022/03/21 13:35:31;;;;;;;4.00;2.05;;;10.00;60.60;;;;;;21016472;28;20040;-79
2022/03/21 13:45:40;;;;;;;2.45;1.55;;;10.00;60.60;;;;;;21059655;28;20031;-77
2022/03/21 13:55:40;;;;;;;2.78;1.75;;;10.00;60.60;;;;;;21037391;28;20063;-76
2022/03/21 14:05:42;;;;;;;3.20;1.75;;;10.10;60.60;;;;;;21065356;28;20035;-76
2022/03/21 14:15:43;;;;;;;3.20;1.60;;;10.10;60.60;;;;;;21048356;28;20082;-76
2022/03/21 14:36:05;;;;;;;3.25;1.70;;;10.10;60.60;;;;;;21032728;28;20117;-75
2022/03/21 14:46:05;;;;;;;3.13;1.60;;;10.20;60.60;;;;;;21059340;28;20028;-75
2022/03/21 14:56:06;;;;;;;3.88;2.20;;;10.20;60.50;;;;;;21026625;28;20134;-72
2022/03/21 15:06:07;;;;;;;3.63;1.70;;;10.30;60.50;;;;;;21075303;28;20504;-73
2022/03/21 15:16:07;;;;;;;3.55;1.98;;;10.30;60.30;;;;;;21040545;28;20402;-73
2022/03/21 15:26:09;;;;;;;3.10;2.00;;;10.40;60.30;;;;;;21023441;28;20070;-73
2022/03/21 15:46:29;;;;;;;4.90;2.25;;;10.60;60.20;;;;;;21024073;28;20625;-76
2022/03/21 15:56:30;;;;;;;3.92;1.70;;;10.60;60.00;;;;;;21014847;28;20134;-77
2022/03/21 16:06:32;;;;;;;3.67;2.22;;;10.70;60.00;;;;;;21051899;28;20040;-75
2022/03/21 16:16:32;;;;;;;3.17;1.43;;;10.70;59.90;;;;;;21057536;28;20085;-76
2022/03/21 16:26:33;;;;;;;4.03;1.60;;;10.70;59.90;;;;;;21086670;28;20307;-76
2022/03/21 16:36:35;;;;;;;3.38;1.73;;;10.80;60.00;;;;;;21069151;28;20028;-79
2022/03/21 16:46:35;;;;;;;5.32;1.55;;;10.70;60.10;;;;;;21048783;28;20028;-75
2022/03/21 16:56:36;;;;;;;2.63;1.83;;;10.70;60.10;;;;;;21089440;28;20050;-77
2022/03/21 17:06:37;;;;;;;4.03;2.00;;;10.70;60.20;;;;;;21084380;28;20478;-78
2022/03/21 17:16:40;;;;;;;5.03;2.58;;;10.70;60.30;;;;;;21066615;28;20040;-79
2022/03/21 17:26:42;;;;;;;4.53;1.77;;;10.60;60.50;;;;;;21082509;28;20028;-77
2022/03/21 17:36:44;;;;;;;4.68;1.60;;;10.60;60.50;;;;;;21064700;28;20032;-77
2022/03/21 17:46:44;;;;;;;3.70;2.05;;;10.60;60.60;;;;;;21080166;28;20039;-79
2022/03/21 17:56:45;;;;;;;5.68;1.80;;;10.60;60.70;;;;;;21055796;28;20032;-77
2022/03/21 18:06:47;;;;;;;5.07;1.50;;;10.50;60.80;;;;;;21042095;28;20028;-78
2022/03/21 18:16:48;;;;;;;2.63;1.65;;;10.50;61.00;;;;;;21010850;28;20290;-77
2022/03/21 18:26:49;;;;;;;4.50;1.77;;;10.40;61.00;;;;;;21084092;28;20031;-78
2022/03/21 18:36:50;;;;;;;3.05;1.55;;;10.40;61.10;;;;;;21143999;28;20036;-79
2022/03/21 18:46:51;;;;;;;4.85;1.88;;;10.40;61.10;;;;;;21110383;28;20031;-79
2022/03/21 18:56:51;;;;;;;2.90;1.45;;;10.40;61.20;;;;;;21091356;28;20124;-79
2022/03/21 19:06:54;;;;;;;2.72;1.70;;;10.40;61.20;;;;;;21140723;28;20165;-80
2022/03/21 19:16:55;;;;;;;3.03;2.00;;;10.40;61.80;;;;;;21108361;28;20109;-79
2022/03/21 19:26:55;;;;;;;3.20;1.50;;;10.40;61.20;;;;;;21088899;28;20039;-79
2022/03/21 19:36:56;;;;;;;4.32;1.88;;;10.30;61.20;;;;;;21117819;28;20301;-79
2022/03/21 19:46:57;;;;;;;3.77;1.90;;;10.40;61.20;;;;;;21083702;28;20032;-78
2022/03/21 19:56:59;;;;;;;3.10;2.13;;;10.30;61.10;;;;;;21135307;28;20297;-78
2022/03/21 20:06:59;;;;;;;4.35;1.88;;;10.30;61.00;;;;;;21156063;28;20081;-79
2022/03/21 20:17:01;;;;;;;3.42;2.05;;;10.30;61.00;;;;;;21104518;28;20039;-78
2022/03/21 20:27:02;;;;;;;3.70;2.25;;;10.30;60.90;;;;;;21139723;28;20164;-78
2022/03/21 20:37:03;;;;;;;4.75;2.47;;;10.30;60.80;;;;;;21120079;28;20408;-78
2022/03/21 20:47:05;;;;;;;3.10;2.17;;;10.30;60.70;;;;;;21103385;28;20045;-78
2022/03/21 20:57:05;;;;;;;6.07;2.83;;;10.30;60.60;;;;;;21118935;28;20131;-78
2022/03/21 21:07:06;;;;;;;3.92;2.47;;;10.20;60.40;;;;;;21134419;28;20417;-78
2022/03/21 21:17:06;;;;;;;4.97;2.78;;;10.20;60.40;;;;;;21116641;28;20035;-78
2022/03/21 21:27:07;;;;;;;4.00;2.20;;;10.20;60.30;;;;;;21148510;28;20039;-78
2022/03/21 21:37:08;;;;;;;4.93;2.13;;;10.20;60.20;;;;;;21115394;28;20118;-78
2022/03/21 21:47:10;;;;;;;3.92;2.50;;;10.20;60.10;;;;;;21114857;28;20032;-78
2022/03/21 21:57:10;;;;;;;3.92;2.55;;;10.20;60.10;;;;;;21097628;28;20181;-78
2022/03/21 22:07:11;;;;;;;3.88;2.42;;;10.20;60.00;;;;;;21146729;28;20027;-78
2022/03/21 22:17:12;;;;;;;5.07;2.63;;;10.20;60.00;;;;;;21128772;28;20172;-78
2022/03/21 22:27:14;;;;;;;4.75;2.72;;;10.20;59.90;;;;;;21129983;28;20028;-78
2022/03/21 22:37:14;;;;;;;5.30;2.78;;;10.20;59.90;;;;;;21143864;28;20105;-78
2022/03/21 22:47:15;;;;;;;4.15;2.90;;;10.10;59.80;;;;;;21126816;28;20032;-78
2022/03/21 22:57:17;;;;;;;4.95;2.67;;;10.10;59.80;;;;;;21125750;28;20473;-78
2022/03/21 23:07:18;;;;;;;5.32;2.92;;;10.20;59.80;;;;;;21110224;28;20453;-78
2022/03/21 23:17:18;;;;;;;3.67;2.53;;;10.20;59.70;;;;;;21107832;28;20043;-78
2022/03/21 23:27:19;;;;;;;4.82;2.80;;;10.10;59.60;;;;;;21123340;28;20028;-78
2022/03/21 23:37:20;;;;;;;3.60;2.17;;;10.10;59.60;;;;;;21123518;28;20489;-77
2022/03/21 23:47:20;;;;;;;5.70;2.65;;;10.10;59.60;;;;;;21122037;28;20477;-78
2022/03/21 23:57:23;;;;;;;3.70;2.63;;;10.10;59.60;;;;;;21121945;28;20510;-78
